createdAt,value
2023-02-18T00:00:29.617Z,12.77
2023-02-18T00:03:13.460Z,13.50
2023-02-18T00:05:57.695Z,12.63
2023-02-18T00:08:43.917Z,12.13
2023-02-18T00:11:27.980Z,11.90
2023-02-18T00:14:15.021Z,12.23
2023-02-18T00:16:58.996Z,12.47
2023-02-18T00:19:42.894Z,12.03
2023-02-18T00:22:26.807Z,12.63
2023-02-18T00:25:11.960Z,13.27
2023-02-18T00:27:56.410Z,12.57
2023-02-18T00:30:42.047Z,12.97
2023-02-18T00:33:25.822Z,11.83
2023-02-18T00:36:12.460Z,12.90
2023-02-18T00:38:58.613Z,12.90
2023-02-18T00:41:44.519Z,12.70
2023-02-18T00:44:28.411Z,12.03
2023-02-18T00:47:14.414Z,13.00
2023-02-18T00:49:58.232Z,12.47
2023-02-18T00:52:41.949Z,12.50
2023-02-18T00:55:25.658Z,11.67
2023-02-18T00:58:11.138Z,12.50
2023-02-18T01:00:55.954Z,12.20
2023-02-18T01:03:41.765Z,13.50
2023-02-18T01:06:25.544Z,14.80
2023-02-18T01:09:09.363Z,13.70
2023-02-18T01:11:53.127Z,14.27
2023-02-18T01:14:38.225Z,12.97
2023-02-18T01:17:22.315Z,13.20
2023-02-18T01:20:07.299Z,13.67
2023-02-18T01:22:51.978Z,13.93
2023-02-18T01:25:35.924Z,12.47
2023-02-18T01:28:21.529Z,12.13
2023-02-18T01:31:09.388Z,12.70
2023-02-18T01:33:53.366Z,12.23
2023-02-18T01:36:37.467Z,11.53
2023-02-18T01:39:21.224Z,13.43
2023-02-18T01:42:06.474Z,12.43
2023-02-18T01:44:52.024Z,14.73
2023-02-18T01:47:37.055Z,13.60
2023-02-18T01:50:20.930Z,12.20
2023-02-18T01:53:05.990Z,12.60
2023-02-18T01:55:50.636Z,12.70
2023-02-18T01:58:35.091Z,12.93
2023-02-18T02:01:19.024Z,11.00
2023-02-18T02:04:04.264Z,12.57
2023-02-18T02:06:48.148Z,12.47
2023-02-18T02:09:34.150Z,12.30
2023-02-18T02:12:41.828Z,11.83
2023-02-18T02:15:35.024Z,10.23
2023-02-18T02:18:37.479Z,11.20
2023-02-18T02:22:09.974Z,10.20
2023-02-18T02:25:13.230Z,10.20
2023-02-18T02:28:30.881Z,9.07
2023-02-18T02:31:40.781Z,9.77
2023-02-18T02:34:53.782Z,8.97
2023-02-18T02:37:43.549Z,9.90
2023-02-18T02:40:35.282Z,10.17
2023-02-18T02:43:29.285Z,10.07
2023-02-18T02:46:20.827Z,8.80
2023-02-18T02:49:14.289Z,10.43
2023-02-18T02:52:05.034Z,10.43
2023-02-18T02:54:48.873Z,12.37
2023-02-18T02:57:49.844Z,11.57
2023-02-18T03:01:02.811Z,10.47
2023-02-18T03:04:14.654Z,11.50
2023-02-18T03:07:19.596Z,11.07
2023-02-18T03:10:19.757Z,10.70
2023-02-18T03:13:10.985Z,10.43
2023-02-18T03:16:00.761Z,9.87
2023-02-18T03:18:50.079Z,10.03
2023-02-18T03:21:38.136Z,8.53
2023-02-18T03:24:27.856Z,9.93
2023-02-18T03:27:17.401Z,9.20
2023-02-18T03:30:06.067Z,9.27
2023-02-18T03:32:54.151Z,9.63
2023-02-18T03:35:39.727Z,9.57
2023-02-18T03:38:27.407Z,9.47
2023-02-18T03:41:15.581Z,9.63
2023-02-18T03:44:02.255Z,9.47
2023-02-18T03:46:46.871Z,9.73
2023-02-18T03:49:30.753Z,9.30
2023-02-18T03:52:16.319Z,10.07
2023-02-18T03:55:00.127Z,10.00
2023-02-18T03:57:45.433Z,10.50
2023-02-18T04:00:29.204Z,10.03
2023-02-18T04:03:13.005Z,9.80
2023-02-18T04:05:56.774Z,9.73
2023-02-18T04:08:40.592Z,10.03
2023-02-18T04:11:24.489Z,9.40
2023-02-18T04:14:10.474Z,10.30
2023-02-18T04:16:54.219Z,9.50
2023-02-18T04:19:38.147Z,10.83
2023-02-18T04:22:21.945Z,10.20
2023-02-18T04:25:06.046Z,10.27
2023-02-18T04:27:49.838Z,11.07
2023-02-18T04:30:35.226Z,10.23
2023-02-18T04:33:19.106Z,12.87
2023-02-18T04:36:03.871Z,13.60
2023-02-18T04:38:47.634Z,10.20
2023-02-18T04:41:31.587Z,9.77
2023-02-18T04:44:15.486Z,11.17
2023-02-18T04:47:00.720Z,10.17
2023-02-18T04:49:44.691Z,15.10
2023-02-18T04:52:28.682Z,12.70
2023-02-18T04:55:12.658Z,13.10
2023-02-18T04:57:56.596Z,12.07
2023-02-18T05:00:40.478Z,8.37
2023-02-18T05:03:25.751Z,9.20
2023-02-18T05:06:09.708Z,10.97
2023-02-18T05:08:53.658Z,11.20
2023-02-18T05:11:37.496Z,10.17
2023-02-18T05:14:21.375Z,26.20
2023-02-18T05:17:05.210Z,15.33
2023-02-18T05:19:50.387Z,14.27
2023-02-18T05:22:34.161Z,10.90
2023-02-18T05:25:18.005Z,11.17
2023-02-18T05:28:01.977Z,10.83
2023-02-18T05:30:45.859Z,10.93
2023-02-18T05:33:29.743Z,12.40
2023-02-18T05:36:15.005Z,10.27
2023-02-18T05:38:58.896Z,13.53
2023-02-18T05:41:42.717Z,13.57
2023-02-18T05:44:32.654Z,12.80
2023-02-18T05:47:16.786Z,20.17
2023-02-18T05:50:00.594Z,16.33
2023-02-18T05:52:45.803Z,19.70
2023-02-18T05:55:29.694Z,14.93
2023-02-18T05:58:13.810Z,16.57
2023-02-18T06:00:57.660Z,15.07
2023-02-18T06:03:41.424Z,16.03
2023-02-18T06:06:25.438Z,12.67
2023-02-18T06:09:10.844Z,13.70
2023-02-18T06:11:54.613Z,14.10
2023-02-18T06:14:39.853Z,12.07
2023-02-18T06:17:25.136Z,14.40
2023-02-18T06:20:09.782Z,12.90
2023-02-18T06:22:53.568Z,10.40
2023-02-18T06:25:38.765Z,11.90
2023-02-18T06:28:22.584Z,11.90
2023-02-18T06:31:06.692Z,12.50
2023-02-18T06:33:50.609Z,12.00
2023-02-18T06:36:34.447Z,13.70
2023-02-18T06:39:18.436Z,12.67
2023-02-18T06:42:03.759Z,14.87
2023-02-18T06:44:47.472Z,15.27
2023-02-18T06:47:31.348Z,13.33
2023-02-18T06:50:15.167Z,14.53
2023-02-18T06:52:59.642Z,14.30
2023-02-18T06:55:43.333Z,14.83
2023-02-18T06:58:28.556Z,15.27
2023-02-18T07:01:12.372Z,16.07
2023-02-18T07:03:56.339Z,14.60
2023-02-18T07:06:40.333Z,13.90
2023-02-18T07:09:24.306Z,13.23
2023-02-18T07:12:08.468Z,13.20
2023-02-18T07:14:53.649Z,12.20
2023-02-18T07:17:37.556Z,12.40
2023-02-18T07:20:22.299Z,12.43
2023-02-18T07:23:06.046Z,17.00
2023-02-18T07:25:49.808Z,23.23
2023-02-18T07:28:33.680Z,14.03
2023-02-18T07:31:19.160Z,16.50
2023-02-18T07:34:03.106Z,19.10
2023-02-18T07:36:47.210Z,12.00
2023-02-18T07:39:31.023Z,10.10
2023-02-18T07:42:14.956Z,9.90
2023-02-18T07:44:58.931Z,6.97
2023-02-18T07:47:45.654Z,7.33
2023-02-18T07:50:29.519Z,6.30
2023-02-18T07:53:15.277Z,6.37
2023-02-18T07:56:00.422Z,6.90
2023-02-18T07:58:44.407Z,8.63
2023-02-18T08:01:28.282Z,19.43
2023-02-18T08:04:13.592Z,15.90
2023-02-18T08:06:57.744Z,9.80
2023-02-18T08:09:41.492Z,10.20
2023-02-18T08:12:25.396Z,9.67
2023-02-18T08:15:10.050Z,13.67
2023-02-18T08:17:54.022Z,10.80
2023-02-18T08:20:40.021Z,8.27
2023-02-18T08:23:25.878Z,7.13
2023-02-18T08:26:10.979Z,10.13
2023-02-18T08:28:59.429Z,6.03
2023-02-18T08:31:44.841Z,6.90
2023-02-18T08:34:29.117Z,7.03
2023-02-18T08:37:14.712Z,6.60
2023-02-18T08:39:58.566Z,5.77
2023-02-18T08:42:42.946Z,5.53
2023-02-18T08:45:26.944Z,5.83
2023-02-18T08:48:19.279Z,5.40
2023-02-18T08:51:15.977Z,6.17
2023-02-18T08:54:01.302Z,5.97
2023-02-18T08:56:45.370Z,5.33
2023-02-18T08:59:29.254Z,5.60
2023-02-18T09:02:14.884Z,6.00
2023-02-18T09:04:58.839Z,6.80
2023-02-18T09:07:42.883Z,5.53
2023-02-18T09:10:28.238Z,5.43
2023-02-18T09:13:11.965Z,5.78
2023-02-18T09:16:00.656Z,5.88
2023-02-18T09:18:44.453Z,5.55
2023-02-18T09:21:28.827Z,5.25
2023-02-18T09:24:13.075Z,5.23
2023-02-18T09:26:58.415Z,6.27
2023-02-18T09:29:43.140Z,5.57
2023-02-18T09:32:35.328Z,5.22
2023-02-18T09:35:19.481Z,5.60
2023-02-18T09:38:03.483Z,5.37
2023-02-18T09:40:52.256Z,5.40
2023-02-18T09:43:43.846Z,5.50
2023-02-18T09:46:31.406Z,5.25
2023-02-18T09:49:17.965Z,5.03
2023-02-18T09:52:07.217Z,5.10
2023-02-18T09:54:53.002Z,5.50
2023-02-18T09:57:44.493Z,4.88
2023-02-18T10:00:34.736Z,5.17
2023-02-18T10:03:20.791Z,5.40
2023-02-18T10:06:07.745Z,5.10
2023-02-18T10:08:55.235Z,4.95
2023-02-18T10:11:42.947Z,5.03
2023-02-18T10:14:27.352Z,4.43
2023-02-18T10:17:17.479Z,4.47
2023-02-18T10:20:07.820Z,4.97
2023-02-18T10:22:54.210Z,4.93
2023-02-18T10:25:44.721Z,4.90
2023-02-18T10:28:28.927Z,4.65
2023-02-18T10:31:19.426Z,5.47
2023-02-18T10:34:15.116Z,4.85
2023-02-18T10:37:08.586Z,5.38
2023-02-18T10:40:05.055Z,4.60
2023-02-18T10:42:59.414Z,4.93
2023-02-18T10:45:50.170Z,5.07
2023-02-18T10:48:48.564Z,4.80
2023-02-18T10:51:36.446Z,4.60
2023-02-18T10:54:25.697Z,4.45
2023-02-18T10:57:19.437Z,4.67
2023-02-18T11:00:11.933Z,4.38
2023-02-18T11:03:15.231Z,11.98
2023-02-18T11:06:00.634Z,5.28
2023-02-18T11:08:47.341Z,4.90
2023-02-18T11:11:34.966Z,4.25
2023-02-18T11:14:38.916Z,4.28
2023-02-18T11:17:27.974Z,4.90
2023-02-18T11:20:27.358Z,4.65
2023-02-18T11:23:21.249Z,4.10
2023-02-18T11:26:13.446Z,3.95
2023-02-18T11:29:02.398Z,4.20
2023-02-18T11:31:49.958Z,3.85
2023-02-18T11:34:34.686Z,3.95
2023-02-18T11:37:21.467Z,4.93
2023-02-18T11:40:06.873Z,4.38
2023-02-18T11:42:52.169Z,3.97
2023-02-18T11:45:36.791Z,4.18
2023-02-18T11:48:25.210Z,4.15
2023-02-18T11:51:17.861Z,4.15
2023-02-18T11:54:03.424Z,4.43
2023-02-18T11:56:57.516Z,4.57
2023-02-18T11:59:43.926Z,3.97
2023-02-18T12:02:34.719Z,3.63
2023-02-18T12:05:23.417Z,4.13
2023-02-18T12:08:12.368Z,4.07
2023-02-18T12:11:02.520Z,3.90
2023-02-18T12:13:53.878Z,4.53
2023-02-18T12:16:50.652Z,4.32
2023-02-18T12:20:15.724Z,4.03
2023-02-18T12:23:07.047Z,4.40
2023-02-18T12:26:00.551Z,3.47
2023-02-18T12:29:03.560Z,4.00
2023-02-18T12:32:00.676Z,3.53
2023-02-18T12:34:54.364Z,3.50
2023-02-18T12:38:02.376Z,4.03
2023-02-18T12:41:03.582Z,4.13
2023-02-18T12:43:57.815Z,3.88
2023-02-18T12:46:56.717Z,3.95
2023-02-18T12:50:25.998Z,4.50
2023-02-18T12:53:35.579Z,3.78
2023-02-18T12:56:39.241Z,4.07
2023-02-18T12:59:50.639Z,3.50
2023-02-18T13:02:57.887Z,3.88
2023-02-18T13:05:48.238Z,3.17
2023-02-18T13:08:42.448Z,4.00
2023-02-18T13:11:36.227Z,3.92
2023-02-18T13:14:23.672Z,3.67
2023-02-18T13:17:12.052Z,4.28
2023-02-18T13:20:04.078Z,3.55
2023-02-18T13:22:50.421Z,3.55
2023-02-18T13:25:38.747Z,3.90
2023-02-18T13:28:29.644Z,3.47
2023-02-18T13:31:28.489Z,3.67
2023-02-18T13:34:20.005Z,3.53
2023-02-18T13:37:14.071Z,3.53
2023-02-18T13:40:00.209Z,3.90
2023-02-18T13:42:44.075Z,3.85
2023-02-18T13:45:31.217Z,3.67
2023-02-18T13:48:26.536Z,3.15
2023-02-18T13:51:11.325Z,3.67
2023-02-18T13:54:06.456Z,3.47
2023-02-18T13:56:55.591Z,3.50
2023-02-18T13:59:44.072Z,4.28
2023-02-18T14:02:34.411Z,3.70
2023-02-18T14:05:23.762Z,3.47
2023-02-18T14:08:14.643Z,3.35
2023-02-18T14:11:31.560Z,3.55
2023-02-18T14:14:45.062Z,3.80
2023-02-18T14:17:42.411Z,3.85
2023-02-18T14:20:51.478Z,3.70
2023-02-18T14:23:57.237Z,3.40
2023-02-18T14:26:46.339Z,3.78
2023-02-18T14:29:32.499Z,3.45
2023-02-18T14:32:20.635Z,3.88
2023-02-18T14:35:24.076Z,4.03
2023-02-18T14:38:23.900Z,3.63
2023-02-18T14:41:35.033Z,3.85
2023-02-18T14:44:41.394Z,3.87
2023-02-18T14:47:37.170Z,3.80
2023-02-18T14:50:22.914Z,4.28
2023-02-18T14:53:10.802Z,4.53
2023-02-18T14:55:59.689Z,3.47
2023-02-18T14:58:47.020Z,4.30
2023-02-18T15:01:33.129Z,3.77
2023-02-18T15:04:18.575Z,3.90
2023-02-18T15:07:04.786Z,3.83
2023-02-18T15:09:49.929Z,3.80
2023-02-18T15:12:33.809Z,3.60
2023-02-18T15:15:18.929Z,7.20
2023-02-18T15:18:04.933Z,10.20
2023-02-18T15:20:50.756Z,12.40
2023-02-18T15:23:37.580Z,8.80
2023-02-18T15:26:22.601Z,8.30
2023-02-18T15:29:07.824Z,4.20
2023-02-18T15:31:51.877Z,7.50
2023-02-18T15:34:38.617Z,4.13
2023-02-18T15:37:24.036Z,6.27
2023-02-18T15:40:14.986Z,5.43
2023-02-18T15:43:01.375Z,7.30
2023-02-18T15:45:47.638Z,4.90
2023-02-18T15:48:35.552Z,4.80
2023-02-18T15:51:23.223Z,4.93
2023-02-18T15:54:14.983Z,5.60
2023-02-18T15:57:03.741Z,5.10
2023-02-18T15:59:54.759Z,4.00
2023-02-18T16:02:51.442Z,4.10
2023-02-18T16:05:40.081Z,4.07
2023-02-18T16:08:27.289Z,4.27
2023-02-18T16:11:14.790Z,4.70
2023-02-18T16:13:58.559Z,4.83
2023-02-18T16:16:42.313Z,4.70
2023-02-18T16:19:27.228Z,4.10
2023-02-18T16:22:26.553Z,4.07
2023-02-18T16:25:17.291Z,4.10
2023-02-18T16:28:13.153Z,3.93
2023-02-18T16:30:56.971Z,3.77
2023-02-18T16:33:40.798Z,4.27
2023-02-18T16:36:26.484Z,4.20
2023-02-18T16:39:11.474Z,3.63
2023-02-18T16:41:55.344Z,4.03
2023-02-18T16:44:41.074Z,4.17
2023-02-18T16:47:24.811Z,4.17
2023-02-18T16:50:18.237Z,4.37
2023-02-18T16:53:02.327Z,5.43
2023-02-18T16:55:46.290Z,9.00
2023-02-18T16:58:30.275Z,4.90
2023-02-18T17:01:24.604Z,4.60
2023-02-18T17:04:11.798Z,3.47
2023-02-18T17:06:55.654Z,4.27
2023-02-18T17:09:39.668Z,3.73
2023-02-18T17:12:23.457Z,4.63
2023-02-18T17:15:14.936Z,4.97
2023-02-18T17:18:00.398Z,5.10
2023-02-18T17:20:44.380Z,4.50
2023-02-18T17:23:28.139Z,4.50
2023-02-18T17:26:16.959Z,4.60
2023-02-18T17:29:01.903Z,4.67
2023-02-18T17:31:47.824Z,3.70
2023-02-18T17:34:33.218Z,4.40
2023-02-18T17:37:17.280Z,5.40
2023-02-18T17:40:01.036Z,5.00
2023-02-18T17:42:45.295Z,5.23
2023-02-18T17:45:33.317Z,5.97
2023-02-18T17:48:17.209Z,5.00
2023-02-18T17:51:02.994Z,5.37
2023-02-18T17:53:47.045Z,3.80
2023-02-18T17:56:31.087Z,3.90
2023-02-18T17:59:15.394Z,3.70
2023-02-18T18:01:59.334Z,3.97
2023-02-18T18:04:43.197Z,4.23
2023-02-18T18:07:28.633Z,3.90
2023-02-18T18:10:13.457Z,4.53
2023-02-18T18:12:57.724Z,4.30
2023-02-18T18:15:43.976Z,4.33
2023-02-18T18:18:28.652Z,4.60
2023-02-18T18:21:20.901Z,4.23
2023-02-18T18:24:06.402Z,4.20
2023-02-18T18:26:50.193Z,4.00
2023-02-18T18:29:33.999Z,4.57
2023-02-18T18:32:17.796Z,4.30
2023-02-18T18:35:01.617Z,4.50
2023-02-18T18:37:46.990Z,4.37
2023-02-18T18:40:33.747Z,4.37
2023-02-18T18:43:20.735Z,4.23
2023-02-18T18:46:06.067Z,3.90
2023-02-18T18:48:49.988Z,4.43
2023-02-18T18:51:34.601Z,3.97
2023-02-18T18:54:18.391Z,3.73
2023-02-18T18:57:03.614Z,4.03
2023-02-18T18:59:47.340Z,3.43
2023-02-18T19:02:31.398Z,4.40
2023-02-18T19:05:20.807Z,4.47
2023-02-18T19:08:06.507Z,4.13
2023-02-18T19:10:52.238Z,4.57
2023-02-18T19:13:37.473Z,4.23
2023-02-18T19:16:23.399Z,4.50
2023-02-18T19:19:07.418Z,4.10
2023-02-18T19:21:53.026Z,4.20
2023-02-18T19:24:36.835Z,3.93
2023-02-18T19:27:20.720Z,4.40
2023-02-18T19:30:07.091Z,4.20
2023-02-18T19:32:51.739Z,4.60
2023-02-18T19:35:37.449Z,4.90
2023-02-18T19:38:21.203Z,4.60
2023-02-18T19:41:09.672Z,4.10
2023-02-18T19:43:55.277Z,4.40
2023-02-18T19:46:40.529Z,4.30
2023-02-18T19:49:27.061Z,4.20
2023-02-18T19:52:10.850Z,4.30
2023-02-18T19:54:54.765Z,4.47
2023-02-18T19:57:39.346Z,4.87
2023-02-18T20:00:23.952Z,4.43
2023-02-18T20:03:09.279Z,5.00
2023-02-18T20:05:53.449Z,4.33
2023-02-18T20:08:37.995Z,4.37
2023-02-18T20:11:22.045Z,4.90
2023-02-18T20:14:05.973Z,4.47
2023-02-18T20:16:49.944Z,4.37
2023-02-18T20:19:35.717Z,5.90
2023-02-18T20:22:19.910Z,4.70
2023-02-18T20:25:04.294Z,5.40
2023-02-18T20:28:00.313Z,5.17
2023-02-18T20:30:45.432Z,5.40
2023-02-18T20:33:29.215Z,5.53
2023-02-18T20:36:15.703Z,5.00
2023-02-18T20:39:10.846Z,5.57
2023-02-18T20:42:02.907Z,4.80
2023-02-18T20:44:50.981Z,4.97
2023-02-18T20:47:34.896Z,4.40
2023-02-18T20:50:18.918Z,4.73
2023-02-18T20:53:04.341Z,4.30
2023-02-18T20:55:48.740Z,5.40
2023-02-18T20:58:33.157Z,4.60
2023-02-18T21:01:19.104Z,4.53
2023-02-18T21:04:03.104Z,4.63
2023-02-18T21:06:49.200Z,4.97
2023-02-18T21:09:34.556Z,4.70
2023-02-18T21:12:18.432Z,4.93
2023-02-18T21:15:02.230Z,4.83
2023-02-18T21:17:47.240Z,4.70
2023-02-18T21:20:31.069Z,4.93
2023-02-18T21:23:15.073Z,4.57
2023-02-18T21:26:05.638Z,4.70
2023-02-18T21:28:50.599Z,5.10
2023-02-18T21:31:36.997Z,4.97
2023-02-18T21:34:21.177Z,4.77
2023-02-18T21:37:05.227Z,4.67
2023-02-18T21:39:49.010Z,4.80
2023-02-18T21:42:34.773Z,4.60
2023-02-18T21:45:18.872Z,4.70
2023-02-18T21:48:22.582Z,4.30
2023-02-18T21:51:06.754Z,5.30
2023-02-18T21:53:50.783Z,4.73
2023-02-18T21:56:34.856Z,5.43
2023-02-18T21:59:21.347Z,4.80
2023-02-18T22:02:06.429Z,5.67
2023-02-18T22:04:51.475Z,6.30
2023-02-18T22:07:35.606Z,5.80
2023-02-18T22:10:19.859Z,4.97
2023-02-18T22:13:03.658Z,5.73
2023-02-18T22:15:56.690Z,5.77
2023-02-18T22:18:40.503Z,5.63
2023-02-18T22:21:24.333Z,5.63
2023-02-18T22:24:09.026Z,5.53
2023-02-18T22:26:52.879Z,6.17
2023-02-18T22:29:36.642Z,5.87
2023-02-18T22:32:22.314Z,6.53
2023-02-18T22:35:06.814Z,5.87
2023-02-18T22:37:50.681Z,7.07
2023-02-18T22:40:35.097Z,5.73
2023-02-18T22:43:19.180Z,6.30
2023-02-18T22:46:04.459Z,6.50
2023-02-18T22:48:49.632Z,5.43
2023-02-18T22:51:37.775Z,5.33
2023-02-18T22:54:22.617Z,5.47
2023-02-18T22:57:06.446Z,5.17
2023-02-18T22:59:50.633Z,5.50
2023-02-18T23:02:34.405Z,5.30
2023-02-18T23:05:20.055Z,5.00
2023-02-18T23:08:06.118Z,4.93
2023-02-18T23:11:01.251Z,5.50
2023-02-18T23:13:45.713Z,5.47
2023-02-18T23:16:29.505Z,4.90
2023-02-18T23:19:13.388Z,4.43
2023-02-18T23:21:58.684Z,4.80
2023-02-18T23:24:44.263Z,4.87
2023-02-18T23:27:29.274Z,4.90
2023-02-18T23:30:13.637Z,4.70
2023-02-18T23:32:57.493Z,4.50
2023-02-18T23:35:41.341Z,4.37
2023-02-18T23:38:26.540Z,4.90
2023-02-18T23:41:10.734Z,6.37
2023-02-18T23:43:55.199Z,6.13
2023-02-18T23:46:39.230Z,4.93
2023-02-18T23:49:24.855Z,6.30
2023-02-18T23:52:08.620Z,6.47
2023-02-18T23:54:53.799Z,7.33
2023-02-18T23:57:37.835Z,6.70
